createdAt,value
2022-09-01T00:08:59.270Z,13.91
2022-09-01T00:24:32.138Z,13.71
2022-09-01T00:39:33.311Z,13.73
2022-09-01T00:54:34.001Z,13.85
2022-09-01T01:09:36.213Z,13.69
2022-09-01T01:24:43.358Z,13.81
2022-09-01T01:39:45.704Z,13.66
2022-09-01T01:54:47.996Z,13.64
2022-09-01T02:09:48.603Z,13.20
2022-09-01T02:24:48.754Z,12.95
2022-09-01T02:39:49.659Z,12.41
2022-09-01T02:54:52.855Z,11.91
2022-09-01T03:09:53.786Z,11.21
2022-09-01T03:24:55.280Z,10.91
2022-09-01T03:39:56.754Z,10.33
2022-09-01T03:55:00.468Z,10.44
2022-09-01T04:10:02.094Z,10.25
2022-09-01T04:25:02.999Z,10.09
2022-09-01T04:40:04.547Z,10.08
2022-09-01T04:55:05.269Z,10.04
2022-09-01T05:10:06.888Z,10.44
2022-09-01T05:25:07.619Z,11.25
2022-09-01T05:40:08.755Z,12.68
2022-09-01T05:55:12.552Z,14.18
2022-09-01T06:10:13.394Z,15.31
2022-09-01T06:25:13.459Z,16.50
2022-09-01T06:40:15.478Z,17.40
2022-09-01T06:55:18.140Z,18.60
2022-09-01T07:25:34.943Z,20.05
2022-09-01T07:42:59.097Z,19.59
2022-09-01T07:55:38.367Z,20.99
2022-09-01T08:10:39.188Z,21.69
2022-09-01T08:25:40.574Z,22.09
2022-09-01T08:40:42.533Z,21.98
2022-09-01T08:55:43.926Z,22.90
2022-09-01T09:10:44.844Z,23.02
2022-09-01T09:25:45.646Z,23.53
2022-09-01T09:41:10.540Z,23.78
2022-09-01T09:55:56.069Z,24.30
2022-09-01T10:10:57.908Z,24.91
2022-09-01T10:25:59.563Z,24.42
2022-09-01T10:41:00.890Z,24.25
2022-09-01T10:56:04.252Z,24.68
2022-09-01T11:11:07.990Z,23.97
2022-09-01T11:26:19.392Z,22.45
2022-09-01T11:41:17.279Z,22.03
2022-09-01T11:56:18.179Z,22.91
2022-09-01T12:11:18.715Z,24.21
2022-09-01T12:26:19.807Z,24.58
2022-09-01T12:56:21.875Z,25.14
2022-09-01T13:11:22.132Z,26.26
2022-09-01T13:26:22.409Z,26.70
2022-09-01T13:41:22.736Z,26.51
2022-09-01T13:56:24.712Z,27.24
2022-09-01T14:11:26.061Z,26.35
2022-09-01T14:26:28.091Z,25.10
2022-09-01T14:41:30.513Z,25.43
2022-09-01T14:56:30.651Z,25.09
2022-09-01T15:11:32.013Z,23.60
2022-09-01T15:26:36.068Z,23.78
2022-09-01T15:41:36.369Z,24.43
2022-09-01T15:56:37.233Z,23.55
2022-09-01T16:11:37.600Z,22.05
2022-09-01T16:26:38.873Z,20.85
2022-09-01T16:41:39.999Z,20.01
2022-09-01T16:56:41.373Z,19.18
2022-09-01T17:11:43.242Z,18.52
2022-09-01T17:26:46.907Z,17.96
2022-09-01T17:41:49.870Z,17.40
2022-09-01T17:56:51.193Z,16.75
2022-09-01T18:11:52.547Z,15.96
2022-09-01T18:26:55.212Z,15.46
2022-09-01T18:41:56.714Z,14.88
2022-09-01T18:56:59.142Z,14.36
2022-09-01T19:12:01.817Z,13.87
2022-09-01T19:27:01.951Z,13.54
2022-09-01T19:42:02.817Z,13.10
2022-09-01T19:57:04.384Z,12.83
2022-09-01T20:12:07.305Z,12.23
2022-09-01T20:27:08.707Z,12.13
2022-09-01T20:42:09.745Z,11.75
2022-09-01T20:57:11.280Z,11.60
2022-09-01T21:12:12.335Z,11.24
2022-09-01T21:27:13.553Z,11.03
2022-09-01T21:42:14.253Z,10.70
2022-09-01T21:57:14.863Z,10.85
2022-09-01T22:12:16.233Z,10.48
2022-09-01T22:27:17.655Z,10.64
2022-09-01T22:42:18.430Z,10.48
2022-09-01T22:57:21.100Z,10.26
2022-09-01T23:12:22.766Z,10.32
2022-09-01T23:27:25.352Z,10.02
2022-09-01T23:42:27.101Z,9.96
2022-09-01T23:57:27.499Z,10.01
